createdAt,value
2023-01-20T00:01:37.838Z,0.92
2023-01-20T00:04:06.382Z,0.91
2023-01-20T00:06:34.361Z,0.90
2023-01-20T00:09:04.715Z,0.89
2023-01-20T00:11:33.204Z,0.87
2023-01-20T00:14:02.538Z,0.87
2023-01-20T00:16:32.038Z,0.86
2023-01-20T00:19:00.671Z,0.86
2023-01-20T00:21:29.076Z,0.85
2023-01-20T00:23:57.110Z,0.84
2023-01-20T00:26:25.908Z,0.84
2023-01-20T00:28:56.185Z,0.83
2023-01-20T00:31:28.764Z,0.83
2023-01-20T00:33:59.000Z,0.83
2023-01-20T00:36:28.975Z,0.82
2023-01-20T00:38:57.975Z,0.81
2023-01-20T00:41:26.048Z,0.81
2023-01-20T00:43:54.119Z,0.80
2023-01-20T00:46:23.225Z,0.80
2023-01-20T00:48:51.310Z,0.80
2023-01-20T00:51:19.624Z,0.79
2023-01-20T00:53:47.975Z,0.78
2023-01-20T00:56:15.843Z,0.79
2023-01-20T00:58:44.510Z,0.78
2023-01-20T01:01:13.062Z,0.78
2023-01-20T01:03:41.318Z,0.78
2023-01-20T01:06:18.445Z,0.78
2023-01-20T01:08:46.461Z,0.79
2023-01-20T01:11:14.867Z,0.79
2023-01-20T01:13:43.211Z,0.79
2023-01-20T01:16:15.820Z,0.79
2023-01-20T01:18:44.307Z,0.79
2023-01-20T01:21:15.125Z,0.79
2023-01-20T01:23:43.741Z,0.79
2023-01-20T01:26:12.631Z,0.79
2023-01-20T01:28:40.865Z,0.80
2023-01-20T01:31:10.233Z,0.80
2023-01-20T01:33:38.607Z,0.80
2023-01-20T01:36:08.710Z,0.80
2023-01-20T01:38:36.747Z,0.80
2023-01-20T01:41:04.940Z,0.80
2023-01-20T01:43:36.686Z,0.80
2023-01-20T01:46:06.000Z,0.80
2023-01-20T01:48:38.657Z,0.81
2023-01-20T01:51:18.542Z,0.81
2023-01-20T01:53:53.857Z,0.81
2023-01-20T01:56:23.877Z,0.81
2023-01-20T01:58:56.728Z,0.81
2023-01-20T02:01:26.498Z,0.81
2023-01-20T02:04:24.062Z,0.81
2023-01-20T02:06:59.067Z,0.82
2023-01-20T02:09:27.543Z,0.81
2023-01-20T02:12:02.496Z,0.81
2023-01-20T02:14:43.937Z,0.82
2023-01-20T02:17:26.027Z,0.82
2023-01-20T02:20:12.792Z,0.83
2023-01-20T02:23:19.050Z,0.84
2023-01-20T02:26:05.749Z,0.86
2023-01-20T02:28:52.113Z,0.87
2023-01-20T02:31:31.922Z,0.87
2023-01-20T02:34:20.742Z,0.88
2023-01-20T02:36:55.375Z,0.88
2023-01-20T02:39:31.107Z,0.88
2023-01-20T02:42:08.301Z,0.88
2023-01-20T02:44:44.900Z,0.88
2023-01-20T02:47:20.869Z,0.88
2023-01-20T02:50:04.893Z,0.88
2023-01-20T02:52:37.361Z,0.89
2023-01-20T02:55:10.864Z,0.90
2023-01-20T02:57:50.561Z,0.89
2023-01-20T03:00:25.882Z,0.89
2023-01-20T03:02:57.543Z,0.89
2023-01-20T03:05:31.851Z,0.89
2023-01-20T03:08:04.256Z,0.88
2023-01-20T03:10:35.232Z,0.87
2023-01-20T03:13:13.806Z,0.87
2023-01-20T03:16:02.874Z,0.86
2023-01-20T03:18:33.885Z,0.86
2023-01-20T03:21:03.448Z,0.85
2023-01-20T03:23:35.263Z,0.86
2023-01-20T03:26:07.591Z,0.88
2023-01-20T03:28:35.702Z,0.89
2023-01-20T03:31:13.624Z,0.90
2023-01-20T03:33:43.224Z,0.91
2023-01-20T03:36:12.480Z,0.90
2023-01-20T03:38:40.412Z,0.90
2023-01-20T03:41:44.931Z,0.90
2023-01-20T03:44:50.495Z,0.89
2023-01-20T03:47:33.137Z,0.88
2023-01-20T03:50:06.968Z,0.88
2023-01-20T03:52:47.161Z,0.87
2023-01-20T03:55:20.729Z,0.88
2023-01-20T03:57:58.583Z,0.87
2023-01-20T04:05:11.345Z,0.87
2023-01-20T04:07:40.545Z,0.87
2023-01-20T04:10:12.929Z,0.87
2023-01-20T04:12:40.943Z,0.86
2023-01-20T04:15:10.775Z,0.85
2023-01-20T04:17:38.726Z,0.85
2023-01-20T04:20:10.451Z,0.85
2023-01-20T04:22:49.126Z,0.85
2023-01-20T04:25:30.197Z,0.85
2023-01-20T04:27:58.415Z,0.85
2023-01-20T04:34:40.010Z,0.84
2023-01-20T04:37:08.262Z,0.84
2023-01-20T04:39:36.157Z,0.84
2023-01-20T04:42:04.948Z,0.84
2023-01-20T04:44:32.977Z,0.85
2023-01-20T04:47:01.024Z,0.86
2023-01-20T04:49:28.994Z,0.88
2023-01-20T04:51:56.770Z,0.89
2023-01-20T04:54:24.603Z,0.91
2023-01-20T04:56:52.563Z,0.92
2023-01-20T04:59:20.437Z,0.93
2023-01-20T05:01:48.493Z,0.94
2023-01-20T05:04:16.385Z,0.95
2023-01-20T05:06:45.080Z,0.94
2023-01-20T05:09:15.509Z,0.94
2023-01-20T05:11:44.138Z,0.94
2023-01-20T05:14:13.032Z,0.93
2023-01-20T05:16:41.026Z,0.94
2023-01-20T05:19:24.172Z,0.96
2023-01-20T05:22:03.964Z,0.98
2023-01-20T05:24:31.900Z,0.97
2023-01-20T05:27:01.869Z,0.98
2023-01-20T05:29:30.391Z,0.98
2023-01-20T05:31:58.257Z,0.98
2023-01-20T05:34:26.086Z,0.97
2023-01-20T05:36:54.905Z,0.96
2023-01-20T05:39:22.953Z,0.96
2023-01-20T05:41:51.014Z,0.97
2023-01-20T05:44:19.506Z,0.98
2023-01-20T05:46:47.471Z,0.99
2023-01-20T05:49:15.393Z,1.00
2023-01-20T05:51:43.380Z,1.00
2023-01-20T05:54:11.345Z,1.01
2023-01-20T05:56:39.568Z,1.01
2023-01-20T05:59:08.161Z,1.01
2023-01-20T06:01:36.461Z,1.02
2023-01-20T06:04:04.602Z,1.02
2023-01-20T06:06:32.776Z,1.03
2023-01-20T06:09:00.939Z,1.02
2023-01-20T06:11:29.022Z,1.02
2023-01-20T06:13:56.869Z,1.02
2023-01-20T06:16:24.766Z,1.02
2023-01-20T06:18:52.756Z,1.02
2023-01-20T06:21:20.818Z,1.01
2023-01-20T06:23:48.659Z,1.01
2023-01-20T06:26:16.805Z,1.01
2023-01-20T06:28:44.915Z,1.02
2023-01-20T06:31:15.805Z,1.03
2023-01-20T06:33:43.816Z,1.04
2023-01-20T06:36:14.020Z,1.03
2023-01-20T06:38:42.055Z,1.05
2023-01-20T06:41:11.254Z,1.04
2023-01-20T06:43:40.349Z,1.05
2023-01-20T06:46:12.337Z,1.05
2023-01-20T06:48:41.228Z,1.07
2023-01-20T06:51:14.938Z,1.07
2023-01-20T06:53:43.441Z,1.08
2023-01-20T06:56:15.535Z,1.08
2023-01-20T06:58:43.777Z,1.08
2023-01-20T07:01:15.196Z,1.10
2023-01-20T07:03:46.102Z,1.11
2023-01-20T07:06:16.193Z,1.12
2023-01-20T07:08:45.590Z,1.13
2023-01-20T07:11:13.518Z,1.14
2023-01-20T07:13:41.613Z,1.17
2023-01-20T07:16:11.579Z,1.19
2023-01-20T07:18:41.516Z,1.21
2023-01-20T07:21:11.706Z,1.22
2023-01-20T07:23:39.972Z,1.22
2023-01-20T07:26:10.521Z,1.24
2023-01-20T07:28:38.596Z,1.24
2023-01-20T07:31:14.940Z,1.25
2023-01-20T07:33:43.344Z,1.25
2023-01-20T07:36:12.763Z,1.27
2023-01-20T07:38:41.340Z,1.28
2023-01-20T07:41:20.357Z,1.28
2023-01-20T07:43:50.571Z,1.29
2023-01-20T07:46:19.681Z,1.29
2023-01-20T07:48:47.699Z,1.30
2023-01-20T07:51:16.776Z,1.31
2023-01-20T07:53:47.377Z,1.31
2023-01-20T07:56:25.011Z,1.33
2023-01-20T07:58:54.799Z,1.35
2023-01-20T08:01:28.075Z,1.36
2023-01-20T08:03:57.343Z,1.37
2023-01-20T08:06:26.787Z,1.38
2023-01-20T08:08:57.679Z,1.40
2023-01-20T08:11:26.935Z,1.41
2023-01-20T08:13:55.067Z,1.41
2023-01-20T08:16:23.219Z,1.41
2023-01-20T08:18:53.896Z,1.41
2023-01-20T08:21:24.846Z,1.40
2023-01-20T08:23:55.541Z,1.41
2023-01-20T08:26:28.357Z,1.41
2023-01-20T08:29:06.856Z,1.40
2023-01-20T08:31:35.686Z,1.40
2023-01-20T08:34:03.802Z,1.40
2023-01-20T08:36:34.917Z,1.40
2023-01-20T08:39:06.237Z,1.40
2023-01-20T08:41:37.213Z,1.40
2023-01-20T08:44:07.770Z,1.40
2023-01-20T08:46:39.849Z,1.40
2023-01-20T08:49:12.927Z,1.39
2023-01-20T08:51:42.366Z,1.39
2023-01-20T08:54:10.562Z,1.39
2023-01-20T08:56:38.735Z,1.38
2023-01-20T08:59:07.294Z,1.39
2023-01-20T09:01:38.525Z,1.39
2023-01-20T09:04:07.673Z,1.40
2023-01-20T09:06:45.099Z,1.42
2023-01-20T09:09:15.088Z,1.44
2023-01-20T09:11:50.459Z,1.46
2023-01-20T09:14:23.561Z,1.50
2023-01-20T09:16:51.599Z,1.53
2023-01-20T09:19:19.552Z,1.56
2023-01-20T09:21:47.447Z,1.60
2023-01-20T09:24:15.462Z,1.64
2023-01-20T09:26:43.450Z,1.69
2023-01-20T09:29:13.522Z,1.74
2023-01-20T09:31:59.598Z,1.81
2023-01-20T09:34:29.473Z,1.89
2023-01-20T09:37:19.641Z,1.96
2023-01-20T09:40:06.860Z,2.02
2023-01-20T09:43:08.508Z,2.08
2023-01-20T09:45:44.580Z,2.16
2023-01-20T09:48:34.015Z,2.24
2023-01-20T09:51:30.473Z,2.31
2023-01-20T09:54:14.292Z,2.37
2023-01-20T09:56:47.963Z,2.42
2023-01-20T09:59:25.204Z,2.46
2023-01-20T10:01:57.812Z,2.51
2023-01-20T10:04:50.028Z,2.56
2023-01-20T10:07:29.823Z,2.59
2023-01-20T10:10:09.535Z,2.60
2023-01-20T10:13:21.947Z,2.55
2023-01-20T10:15:57.239Z,2.50
2023-01-20T10:18:49.311Z,2.45
2023-01-20T10:21:28.872Z,2.41
2023-01-20T10:24:07.476Z,2.39
2023-01-20T10:26:47.562Z,2.39
2023-01-20T10:29:27.442Z,2.38
2023-01-20T10:32:05.919Z,2.38
2023-01-20T10:34:47.912Z,2.37
2023-01-20T10:37:16.781Z,2.36
2023-01-20T10:40:14.475Z,2.34
2023-01-20T10:42:48.868Z,2.32
2023-01-20T10:45:32.396Z,2.31
2023-01-20T10:48:41.142Z,2.30
2023-01-20T10:51:13.528Z,2.32
2023-01-20T10:53:44.197Z,2.33
2023-01-20T10:56:34.237Z,2.36
2023-01-20T10:59:13.880Z,2.40
2023-01-20T11:04:38.126Z,2.46
2023-01-20T11:07:09.835Z,2.48
2023-01-20T11:09:38.034Z,2.48
2023-01-20T11:12:23.212Z,2.48
2023-01-20T11:14:53.844Z,2.47
2023-01-20T11:17:21.940Z,2.48
2023-01-20T11:19:53.419Z,2.49
2023-01-20T11:22:29.690Z,2.51
2023-01-20T11:25:04.123Z,2.55
2023-01-20T11:27:41.455Z,2.57
2023-01-20T11:30:32.077Z,2.58
2023-01-20T11:33:28.191Z,2.61
2023-01-20T11:36:01.913Z,2.63
2023-01-20T11:38:32.602Z,2.66
2023-01-20T11:41:00.573Z,2.70
2023-01-20T11:43:35.691Z,2.73
2023-01-20T11:46:20.077Z,2.74
2023-01-20T11:48:48.712Z,2.74
2023-01-20T11:51:25.425Z,2.75
2023-01-20T11:54:08.295Z,2.75
2023-01-20T11:56:41.986Z,2.76
2023-01-20T11:59:31.124Z,2.77
2023-01-20T12:02:09.767Z,2.78
2023-01-20T12:04:46.339Z,2.80
2023-01-20T12:07:18.870Z,2.82
2023-01-20T12:09:51.352Z,2.86
2023-01-20T12:12:48.324Z,2.91
2023-01-20T12:15:25.550Z,2.97
2023-01-20T12:18:00.990Z,3.01
2023-01-20T12:20:57.769Z,3.05
2023-01-20T12:24:20.989Z,3.07
2023-01-20T12:26:49.846Z,3.10
2023-01-20T12:29:26.037Z,3.12
2023-01-20T12:31:54.569Z,3.14
2023-01-20T12:34:29.749Z,3.16
2023-01-20T12:37:13.396Z,3.17
2023-01-20T12:39:41.453Z,3.19
2023-01-20T12:42:21.324Z,3.17
2023-01-20T12:45:18.248Z,3.15
2023-01-20T12:48:10.088Z,3.12
2023-01-20T12:51:05.994Z,3.07
2023-01-20T12:54:00.044Z,3.03
2023-01-20T12:56:50.529Z,2.99
2023-01-20T12:59:41.754Z,2.96
2023-01-20T13:02:43.165Z,2.93
2023-01-20T13:05:44.992Z,2.87
2023-01-20T13:08:28.837Z,2.81
2023-01-20T13:11:21.009Z,2.75
2023-01-20T13:14:07.553Z,2.72
2023-01-20T13:17:01.122Z,2.68
2023-01-20T13:19:33.230Z,2.62
2023-01-20T13:22:08.418Z,2.59
2023-01-20T13:24:37.552Z,2.55
2023-01-20T13:27:06.102Z,2.52
2023-01-20T13:29:36.967Z,2.50
2023-01-20T13:32:35.260Z,2.47
2023-01-20T13:35:35.319Z,2.44
2023-01-20T13:38:03.567Z,2.44
2023-01-20T13:40:37.418Z,2.41
2023-01-20T13:43:28.215Z,2.40
2023-01-20T13:46:05.810Z,2.39
2023-01-20T13:48:36.221Z,2.35
2023-01-20T13:51:36.372Z,2.31
2023-01-20T13:54:23.176Z,2.30
2023-01-20T13:56:52.128Z,2.25
2023-01-20T13:59:19.957Z,2.22
2023-01-20T14:01:47.828Z,2.21
2023-01-20T14:04:18.953Z,2.21
2023-01-20T14:06:52.514Z,2.21
2023-01-20T14:09:26.138Z,2.19
2023-01-20T14:11:57.218Z,2.19
2023-01-20T14:14:26.756Z,2.18
2023-01-20T14:16:56.354Z,2.17
2023-01-20T14:19:27.593Z,2.14
2023-01-20T14:21:57.842Z,2.12
2023-01-20T14:24:38.064Z,2.11
2023-01-20T14:27:17.560Z,2.09
2023-01-20T14:29:47.092Z,2.07
2023-01-20T14:32:22.179Z,2.06
2023-01-20T14:34:52.094Z,2.05
2023-01-20T14:37:35.375Z,2.03
2023-01-20T14:40:31.469Z,2.01
2023-01-20T14:43:02.012Z,1.98
2023-01-20T14:45:32.389Z,1.95
2023-01-20T14:48:02.695Z,1.91
2023-01-20T14:50:31.300Z,1.89
2023-01-20T14:53:00.513Z,1.85
2023-01-20T14:55:35.642Z,1.84
2023-01-20T14:58:14.306Z,1.82
2023-01-20T15:01:00.668Z,1.80
2023-01-20T15:03:29.924Z,1.78
2023-01-20T15:06:14.990Z,1.78
2023-01-20T15:09:04.462Z,1.77
2023-01-20T15:11:34.546Z,1.75
2023-01-20T15:14:03.656Z,1.74
2023-01-20T15:16:44.191Z,1.74
2023-01-20T15:19:15.372Z,1.73
2023-01-20T15:21:56.452Z,1.72
2023-01-20T15:24:30.681Z,1.68
2023-01-20T15:27:01.409Z,1.66
2023-01-20T15:29:36.720Z,1.62
2023-01-20T15:32:12.569Z,1.60
2023-01-20T15:34:40.874Z,1.59
2023-01-20T15:37:21.359Z,1.57
2023-01-20T15:39:49.517Z,1.55
2023-01-20T15:42:18.961Z,1.54
2023-01-20T15:44:47.009Z,1.53
2023-01-20T15:47:26.107Z,1.52
2023-01-20T15:49:59.661Z,1.53
2023-01-20T15:52:27.507Z,1.52
2023-01-20T15:54:55.394Z,1.52
2023-01-20T15:57:23.515Z,1.51
2023-01-20T15:59:51.287Z,1.51
2023-01-20T16:02:21.011Z,1.53
2023-01-20T16:04:50.016Z,1.52
2023-01-20T16:07:20.496Z,1.53
2023-01-20T16:09:49.229Z,1.52
2023-01-20T16:12:18.518Z,1.53
2023-01-20T16:14:46.457Z,1.53
2023-01-20T16:17:17.183Z,1.55
2023-01-20T16:19:45.360Z,1.55
2023-01-20T16:22:14.133Z,1.56
2023-01-20T16:24:45.368Z,1.57
2023-01-20T16:27:22.833Z,1.56
2023-01-20T16:29:50.780Z,1.56
2023-01-20T16:32:22.391Z,1.57
2023-01-20T16:34:51.548Z,1.58
2023-01-20T16:37:19.319Z,1.59
2023-01-20T16:39:47.262Z,1.60
2023-01-20T16:42:16.041Z,1.60
2023-01-20T16:44:44.019Z,1.60
2023-01-20T16:47:12.207Z,1.61
2023-01-20T16:49:40.187Z,1.63
2023-01-20T16:52:08.301Z,1.66
2023-01-20T16:54:36.127Z,1.67
2023-01-20T16:57:04.078Z,1.66
2023-01-20T16:59:31.844Z,1.66
2023-01-20T17:01:59.680Z,1.65
2023-01-20T17:04:27.495Z,1.66
2023-01-20T17:06:55.538Z,1.65
2023-01-20T17:09:23.435Z,1.65
2023-01-20T17:11:51.368Z,1.66
2023-01-20T17:14:19.418Z,1.66
2023-01-20T17:16:47.348Z,1.65
2023-01-20T17:19:17.615Z,1.63
2023-01-20T17:21:45.588Z,1.62
2023-01-20T17:24:13.447Z,1.60
2023-01-20T17:26:41.493Z,1.57
2023-01-20T17:29:14.027Z,1.56
2023-01-20T17:31:42.954Z,1.55
2023-01-20T17:34:11.385Z,1.52
2023-01-20T17:36:39.291Z,1.48
2023-01-20T17:39:07.968Z,1.45
2023-01-20T17:41:36.768Z,1.42
2023-01-20T17:44:06.160Z,1.39
2023-01-20T17:46:34.053Z,1.39
2023-01-20T17:49:04.788Z,1.37
2023-01-20T17:51:41.303Z,1.34
2023-01-20T17:54:09.624Z,1.30
2023-01-20T17:56:37.617Z,1.28
2023-01-20T17:59:06.010Z,1.26
2023-01-20T18:01:34.094Z,1.27
2023-01-20T18:04:04.436Z,1.23
2023-01-20T18:06:35.105Z,1.20
2023-01-20T18:09:04.476Z,1.20
2023-01-20T18:11:36.111Z,1.20
2023-01-20T18:14:05.733Z,1.19
2023-01-20T18:16:39.679Z,1.18
2023-01-20T18:19:11.290Z,1.16
2023-01-20T18:21:41.168Z,1.15
2023-01-20T18:24:10.861Z,1.14
2023-01-20T18:26:40.565Z,1.15
2023-01-20T18:29:13.922Z,1.14
2023-01-20T18:31:43.019Z,1.13
2023-01-20T18:34:13.163Z,1.14
2023-01-20T18:36:46.012Z,1.15
2023-01-20T18:39:19.635Z,1.14
2023-01-20T18:41:48.826Z,1.13
2023-01-20T18:44:19.165Z,1.17
2023-01-20T18:46:47.367Z,1.20
2023-01-20T18:49:16.815Z,1.22
2023-01-20T18:54:47.040Z,1.23
2023-01-20T18:57:14.895Z,1.25
2023-01-20T18:59:43.346Z,1.24
2023-01-20T19:04:35.830Z,1.26
2023-01-20T19:07:03.847Z,1.26
2023-01-20T19:09:31.761Z,1.25
2023-01-20T19:11:59.735Z,1.24
2023-01-20T19:14:27.833Z,1.24
2023-01-20T19:16:55.935Z,1.23
2023-01-20T19:19:23.852Z,1.25
2023-01-20T19:21:52.709Z,1.27
2023-01-20T19:24:21.750Z,1.27
2023-01-20T19:26:50.108Z,1.28
2023-01-20T19:29:18.915Z,1.28
2023-01-20T19:31:47.637Z,1.27
2023-01-20T19:34:16.070Z,1.29
2023-01-20T19:36:44.164Z,1.31
2023-01-20T19:39:12.166Z,1.31
2023-01-20T19:41:41.057Z,1.31
2023-01-20T19:44:11.171Z,1.33
2023-01-20T19:46:45.815Z,1.33
2023-01-20T19:49:13.898Z,1.34
2023-01-20T19:51:41.842Z,1.35
2023-01-20T19:54:12.679Z,1.37
2023-01-20T19:56:41.319Z,1.39
2023-01-20T19:59:12.355Z,1.40
2023-01-20T20:01:40.440Z,1.42
2023-01-20T20:04:13.030Z,1.42
2023-01-20T20:06:48.471Z,1.43
2023-01-20T20:09:20.040Z,1.44
2023-01-20T20:11:48.423Z,1.45
2023-01-20T20:14:19.112Z,1.46
2023-01-20T20:16:48.388Z,1.47
2023-01-20T20:19:19.801Z,1.48
2023-01-20T20:21:47.888Z,1.48
2023-01-20T20:24:17.654Z,1.47
2023-01-20T20:26:46.856Z,1.49
2023-01-20T20:29:17.011Z,1.50
2023-01-20T20:31:45.374Z,1.51
2023-01-20T20:34:16.922Z,1.50
2023-01-20T20:36:45.449Z,1.52
2023-01-20T20:39:15.609Z,1.54
2023-01-20T20:42:24.146Z,1.56
2023-01-20T20:44:52.183Z,1.56
2023-01-20T20:47:20.462Z,1.55
2023-01-20T20:49:48.599Z,1.55
2023-01-20T20:52:16.520Z,1.56
2023-01-20T20:54:44.412Z,1.57
2023-01-20T20:57:12.500Z,1.58
2023-01-20T20:59:58.035Z,1.58
2023-01-20T21:02:26.827Z,1.60
2023-01-20T21:04:55.177Z,1.58
2023-01-20T21:07:25.320Z,1.60
2023-01-20T21:09:53.476Z,1.59
2023-01-20T21:12:21.517Z,1.59
2023-01-20T21:14:49.430Z,1.57
2023-01-20T21:17:17.656Z,1.57
2023-01-20T21:19:46.739Z,1.56
2023-01-20T21:22:14.848Z,1.56
2023-01-20T21:24:43.037Z,1.58
2023-01-20T21:27:11.103Z,1.60
2023-01-20T21:29:39.225Z,1.62
2023-01-20T21:32:07.367Z,1.62
2023-01-20T21:34:35.433Z,1.59
2023-01-20T21:37:18.452Z,1.60
2023-01-20T21:39:46.613Z,1.60
2023-01-20T21:42:15.272Z,1.61
2023-01-20T21:44:43.430Z,1.59
2023-01-20T21:47:11.663Z,1.58
2023-01-20T21:49:58.023Z,1.55
2023-01-20T21:52:41.480Z,1.56
2023-01-20T21:55:19.663Z,1.59
2023-01-20T21:57:51.144Z,1.58
2023-01-20T22:00:20.200Z,1.60
2023-01-20T22:02:53.989Z,1.61
2023-01-20T22:05:21.951Z,1.60
2023-01-20T22:07:50.014Z,1.55
2023-01-20T22:10:18.501Z,1.52
2023-01-20T22:12:46.914Z,1.50
2023-01-20T22:15:15.086Z,1.49
2023-01-20T22:17:43.575Z,1.48
2023-01-20T22:20:12.014Z,1.48
2023-01-20T22:22:40.017Z,1.47
2023-01-20T22:25:08.356Z,1.46
2023-01-20T22:27:36.385Z,1.43
2023-01-20T22:30:04.772Z,1.43
2023-01-20T22:32:32.721Z,1.42
2023-01-20T22:35:00.708Z,1.43
2023-01-20T22:37:31.293Z,1.44
2023-01-20T22:39:59.368Z,1.46
2023-01-20T22:42:27.376Z,1.47
2023-01-20T22:44:55.815Z,1.46
2023-01-20T22:47:23.829Z,1.44
2023-01-20T22:49:54.662Z,1.42
2023-01-20T22:52:26.062Z,1.43
2023-01-20T22:54:54.095Z,1.41
2023-01-20T22:57:22.064Z,1.41
2023-01-20T22:59:50.082Z,1.39
2023-01-20T23:02:18.035Z,1.40
2023-01-20T23:04:45.999Z,1.38
2023-01-20T23:07:14.380Z,1.37
2023-01-20T23:09:42.541Z,1.38
2023-01-20T23:12:10.832Z,1.36
2023-01-20T23:14:57.622Z,1.33
2023-01-20T23:17:30.917Z,1.32
2023-01-20T23:19:59.047Z,1.29
2023-01-20T23:22:27.054Z,1.28
2023-01-20T23:24:54.967Z,1.27
2023-01-20T23:27:42.848Z,1.26
2023-01-20T23:30:11.435Z,1.26
2023-01-20T23:32:39.493Z,1.30
2023-01-20T23:35:07.717Z,1.30
2023-01-20T23:37:35.727Z,1.30
2023-01-20T23:40:04.275Z,1.29
2023-01-20T23:42:32.212Z,1.29
2023-01-20T23:45:00.240Z,1.26
2023-01-20T23:47:28.213Z,1.26
2023-01-20T23:49:56.148Z,1.24
2023-01-20T23:52:26.002Z,1.24
2023-01-20T23:54:54.078Z,1.25
2023-01-20T23:57:22.260Z,1.27
2023-01-20T23:59:50.359Z,1.26
